createdAt,value
2022-12-18T00:00:40.876Z,98263.47
2022-12-18T00:06:03.795Z,98269.56
2022-12-18T00:11:08.824Z,98274.75
2022-12-18T00:16:13.277Z,98279.31
2022-12-18T00:21:15.749Z,98287.16
2022-12-18T00:26:20.710Z,98292.25
2022-12-18T00:31:25.090Z,98292.56
2022-12-18T00:36:29.356Z,98285.28
2022-12-18T00:41:51.665Z,98301.09
2022-12-18T00:46:53.586Z,98302.50
2022-12-18T00:51:55.511Z,98310.16
2022-12-18T00:56:58.839Z,98327.75
2022-12-18T01:02:00.887Z,98327.91
2022-12-18T01:07:02.936Z,98336.41
2022-12-18T01:12:07.238Z,98345.50
2022-12-18T01:17:09.145Z,98340.13
2022-12-18T01:22:11.075Z,98341.47
2022-12-18T01:27:14.423Z,98333.34
2022-12-18T01:32:16.322Z,98352.91
2022-12-18T01:37:18.222Z,98350.31
2022-12-18T01:42:22.121Z,98349.25
2022-12-18T01:47:27.434Z,98344.97
2022-12-18T01:52:31.739Z,98363.91
2022-12-18T01:57:35.952Z,98357.28
2022-12-18T02:02:38.793Z,98374.44
2022-12-18T02:07:50.444Z,98378.16
2022-12-18T02:12:59.640Z,98382.84
2022-12-18T02:18:07.508Z,98399.19
2022-12-18T02:23:21.574Z,98396.53
2022-12-18T02:28:29.400Z,98410.28
2022-12-18T02:33:32.904Z,98409.28
2022-12-18T02:38:36.041Z,98410.06
2022-12-18T02:43:39.863Z,98414.88
2022-12-18T02:48:42.114Z,98415.03
2022-12-18T02:53:51.131Z,98417.31
2022-12-18T02:58:59.724Z,98428.06
2022-12-18T03:04:10.949Z,98435.47
2022-12-18T03:09:15.770Z,98439.59
2022-12-18T03:14:22.900Z,98442.44
2022-12-18T03:19:29.274Z,98435.59
2022-12-18T03:24:33.117Z,98444.25
2022-12-18T03:29:39.274Z,98436.00
2022-12-18T03:34:43.338Z,98447.75
2022-12-18T03:39:45.310Z,98451.00
2022-12-18T03:44:58.678Z,98454.38
2022-12-18T03:50:12.872Z,98452.38
2022-12-18T03:55:15.252Z,98472.44
2022-12-18T04:00:20.053Z,98474.69
2022-12-18T04:05:25.193Z,98487.94
2022-12-18T04:10:27.320Z,98479.94
2022-12-18T04:15:32.416Z,98481.09
2022-12-18T04:20:34.370Z,98491.16
2022-12-18T04:25:36.288Z,98501.63
2022-12-18T04:30:39.612Z,98512.19
2022-12-18T04:35:42.310Z,98521.75
2022-12-18T04:40:44.346Z,98516.41
2022-12-18T04:45:47.667Z,98522.13
2022-12-18T04:50:49.569Z,98526.53
2022-12-18T04:55:51.639Z,98531.94
2022-12-18T05:00:54.922Z,98536.38
2022-12-18T05:05:56.840Z,98549.25
2022-12-18T05:11:02.685Z,98564.78
2022-12-18T05:16:07.452Z,98568.63
2022-12-18T05:21:09.485Z,98572.88
2022-12-18T05:26:16.756Z,98560.31
2022-12-18T05:31:20.094Z,98566.34
2022-12-18T05:36:22.091Z,98579.31
2022-12-18T05:41:24.032Z,98572.28
2022-12-18T05:46:27.582Z,98582.50
2022-12-18T05:51:29.655Z,98584.56
2022-12-18T05:56:31.547Z,98581.75
2022-12-18T06:01:34.893Z,98579.41
2022-12-18T06:06:37.651Z,98585.59
2022-12-18T06:11:40.034Z,98599.56
2022-12-18T06:16:43.330Z,98606.03
2022-12-18T06:21:45.332Z,98606.69
2022-12-18T06:26:47.325Z,98610.00
2022-12-18T06:31:50.684Z,98603.16
2022-12-18T06:36:52.735Z,98614.50
2022-12-18T06:41:54.772Z,98616.88
2022-12-18T06:46:58.031Z,98621.00
2022-12-18T06:52:00.181Z,98627.66
2022-12-18T06:57:02.107Z,98625.22
2022-12-18T07:02:05.755Z,98641.31
2022-12-18T07:07:07.787Z,98645.47
2022-12-18T07:12:09.680Z,98653.78
2022-12-18T07:17:13.012Z,98659.44
2022-12-18T07:22:14.934Z,98669.31
2022-12-18T07:27:16.860Z,98674.31
2022-12-18T07:32:20.117Z,98674.66
2022-12-18T07:37:22.083Z,98684.91
2022-12-18T07:42:33.067Z,98687.75
2022-12-18T07:47:37.428Z,98685.06
2022-12-18T07:52:39.430Z,98683.38
2022-12-18T07:57:50.423Z,98696.47
2022-12-18T08:02:54.403Z,98695.50
2022-12-18T08:07:56.994Z,98691.41
2022-12-18T08:13:04.714Z,98698.47
2022-12-18T08:18:13.882Z,98698.84
2022-12-18T08:23:16.259Z,98698.34
2022-12-18T08:28:18.231Z,98704.97
2022-12-18T08:33:21.633Z,98717.47
2022-12-18T08:38:24.200Z,98716.66
2022-12-18T08:43:45.978Z,98721.56
2022-12-18T08:48:51.356Z,98730.06
2022-12-18T08:53:53.268Z,98736.59
2022-12-18T08:58:55.721Z,98737.84
2022-12-18T09:03:59.043Z,98744.22
2022-12-18T09:09:01.018Z,98741.06
2022-12-18T09:14:03.840Z,98747.06
2022-12-18T09:19:08.004Z,98744.84
2022-12-18T09:24:13.427Z,98748.03
2022-12-18T09:29:16.236Z,98753.09
2022-12-18T09:34:22.823Z,98757.34
2022-12-18T09:39:24.753Z,98749.56
2022-12-18T09:44:29.791Z,98751.47
2022-12-18T09:49:38.242Z,98746.22
2022-12-18T09:54:41.797Z,98748.47
2022-12-18T09:59:49.935Z,98756.69
2022-12-18T10:05:04.196Z,98758.53
2022-12-18T10:10:15.488Z,98746.38
2022-12-18T10:15:25.478Z,98733.06
2022-12-18T10:20:35.280Z,98730.88
2022-12-18T10:25:44.693Z,98734.06
2022-12-18T10:30:47.020Z,98728.44
2022-12-18T10:35:51.975Z,98716.34
2022-12-18T10:40:55.973Z,98724.47
2022-12-18T10:46:12.780Z,98704.78
2022-12-18T10:51:23.430Z,98715.00
2022-12-18T10:56:28.301Z,98708.00
2022-12-18T11:01:45.862Z,98700.44
2022-12-18T11:06:56.861Z,98690.53
2022-12-18T11:12:00.786Z,98695.63
2022-12-18T11:17:25.259Z,98689.91
2022-12-18T11:22:29.129Z,98687.97
2022-12-18T11:27:31.292Z,98680.59
2022-12-18T11:32:36.599Z,98686.13
2022-12-18T11:37:42.661Z,98681.69
2022-12-18T11:42:51.381Z,98683.59
2022-12-18T11:47:58.772Z,98684.97
2022-12-18T11:53:06.177Z,98673.78
2022-12-18T11:58:18.156Z,98689.72
2022-12-18T12:03:31.261Z,98691.81
2022-12-18T12:08:46.454Z,98709.09
2022-12-18T12:14:00.442Z,98715.09
2022-12-18T12:19:16.573Z,98712.72
2022-12-18T12:24:34.974Z,98721.56
2022-12-18T12:29:48.646Z,98717.69
2022-12-18T12:35:09.430Z,98728.91
2022-12-18T12:40:49.293Z,98732.81
2022-12-18T12:45:46.438Z,98734.75
2022-12-18T12:50:49.579Z,98730.19
2022-12-18T12:55:54.366Z,98738.69
2022-12-18T13:01:05.782Z,98743.19
2022-12-18T13:06:15.135Z,98746.13
2022-12-18T13:11:52.577Z,98748.16
2022-12-18T13:17:26.142Z,98750.56
2022-12-18T13:22:34.212Z,98752.53
2022-12-18T13:28:02.342Z,98759.00
2022-12-18T13:34:24.619Z,98762.66
2022-12-18T13:39:28.930Z,98759.38
2022-12-18T13:44:40.879Z,98762.38
2022-12-18T13:49:45.178Z,98757.09
2022-12-18T13:54:51.498Z,98759.06
2022-12-18T13:59:56.333Z,98748.97
2022-12-18T14:04:58.271Z,98759.78
2022-12-18T14:10:41.205Z,98752.53
2022-12-18T14:15:34.715Z,98742.66
2022-12-18T14:20:41.595Z,98756.53
2022-12-18T14:25:47.026Z,98759.19
2022-12-18T14:30:50.821Z,98768.56
2022-12-18T14:35:56.959Z,98762.63
2022-12-18T14:41:00.920Z,98767.41
2022-12-18T14:46:06.692Z,98757.13
2022-12-18T14:51:17.930Z,98752.78
2022-12-18T14:56:22.187Z,98751.22
2022-12-18T15:01:29.735Z,98746.88
2022-12-18T15:06:34.198Z,98768.59
2022-12-18T15:11:46.941Z,98778.47
2022-12-18T15:16:53.882Z,98770.13
2022-12-18T15:21:56.719Z,98779.81
2022-12-18T15:27:00.467Z,98784.00
2022-12-18T15:32:16.797Z,98794.75
2022-12-18T15:37:19.274Z,98803.25
2022-12-18T15:42:45.037Z,98795.97
2022-12-18T15:47:50.236Z,98793.69
2022-12-18T15:52:56.187Z,98803.69
2022-12-18T15:57:58.330Z,98810.34
2022-12-18T16:03:01.848Z,98816.50
2022-12-18T16:08:04.767Z,98814.81
2022-12-18T16:13:07.348Z,98810.78
2022-12-18T16:18:10.666Z,98816.91
2022-12-18T16:23:12.773Z,98831.94
2022-12-18T16:28:15.111Z,98830.88
2022-12-18T16:33:18.686Z,98839.78
2022-12-18T16:38:20.836Z,98839.81
2022-12-18T16:43:22.834Z,98845.41
2022-12-18T16:48:26.713Z,98835.94
2022-12-18T16:53:30.130Z,98825.81
2022-12-18T16:58:32.283Z,98826.16
2022-12-18T17:03:35.813Z,98812.50
2022-12-18T17:08:37.862Z,98795.47
2022-12-18T17:13:40.416Z,98792.19
2022-12-18T17:18:43.968Z,98769.28
2022-12-18T17:23:46.060Z,98767.44
2022-12-18T17:28:48.140Z,98764.72
2022-12-18T17:33:52.583Z,98758.34
2022-12-18T17:38:57.361Z,98757.84
2022-12-18T17:44:00.767Z,98755.81
2022-12-18T17:49:04.517Z,98762.28
2022-12-18T17:54:06.574Z,98784.59
2022-12-18T17:59:09.257Z,98787.19
2022-12-18T18:04:13.052Z,98787.25
2022-12-18T18:09:16.955Z,98774.09
2022-12-18T18:14:20.770Z,98783.50
2022-12-18T18:19:24.912Z,98778.41
2022-12-18T18:24:26.877Z,98778.06
2022-12-18T18:29:32.580Z,98775.56
2022-12-18T18:34:36.259Z,98782.81
2022-12-18T18:39:38.527Z,98791.06
2022-12-18T18:44:43.329Z,98797.16
2022-12-18T18:49:51.631Z,98797.81
2022-12-18T18:55:12.238Z,98802.44
2022-12-18T19:00:16.750Z,98809.34
2022-12-18T19:05:20.365Z,98824.31
2022-12-18T19:10:22.353Z,98832.94
2022-12-18T19:15:24.353Z,98847.28
2022-12-18T19:20:28.366Z,98835.38
2022-12-18T19:25:40.621Z,98828.50
2022-12-18T19:30:43.956Z,98831.84
2022-12-18T19:35:47.585Z,98841.53
2022-12-18T19:40:49.678Z,98847.72
2022-12-18T19:45:54.609Z,98856.25
2022-12-18T19:50:58.081Z,98854.75
2022-12-18T19:56:05.502Z,98844.03
2022-12-18T20:01:07.976Z,98834.59
2022-12-18T20:06:15.445Z,98830.94
2022-12-18T20:11:17.427Z,98830.94
2022-12-18T20:16:19.398Z,98818.75
2022-12-18T20:21:23.737Z,98817.91
2022-12-18T20:26:26.080Z,98817.69
2022-12-18T20:31:28.278Z,98827.44
2022-12-18T20:36:32.884Z,98805.72
2022-12-18T20:41:38.341Z,98810.19
2022-12-18T20:46:40.998Z,98809.72
2022-12-18T20:51:44.357Z,98809.59
2022-12-18T20:56:46.388Z,98800.47
2022-12-18T21:01:49.448Z,98794.16
2022-12-18T21:07:00.785Z,98794.34
2022-12-18T21:12:23.743Z,98784.13
2022-12-18T21:17:26.724Z,98789.63
2022-12-18T21:22:31.727Z,98782.56
2022-12-18T21:27:34.038Z,98780.00
2022-12-18T21:32:35.998Z,98767.03
2022-12-18T21:37:39.350Z,98768.19
2022-12-18T21:43:00.732Z,98769.00
2022-12-18T21:48:02.892Z,98767.31
2022-12-18T21:53:06.176Z,98772.38
2022-12-18T21:58:08.119Z,98776.31
2022-12-18T22:03:18.474Z,98785.13
2022-12-18T22:08:22.572Z,98779.31
2022-12-18T22:13:24.712Z,98778.00
2022-12-18T22:18:27.411Z,98777.34
2022-12-18T22:23:30.824Z,98777.72
2022-12-18T22:28:51.504Z,98778.50
2022-12-18T22:33:53.418Z,98781.88
2022-12-18T22:38:56.680Z,98783.78
2022-12-18T22:43:58.601Z,98795.16
2022-12-18T22:49:00.767Z,98800.78
2022-12-18T22:54:04.390Z,98785.59
2022-12-18T22:59:09.035Z,98795.75
2022-12-18T23:04:11.535Z,98788.84
2022-12-18T23:09:16.657Z,98794.56
2022-12-18T23:14:18.714Z,98793.97
2022-12-18T23:19:21.134Z,98800.34
2022-12-18T23:24:26.955Z,98803.28
2022-12-18T23:29:28.912Z,98786.72
2022-12-18T23:34:30.967Z,98778.78
2022-12-18T23:39:34.237Z,98792.00
2022-12-18T23:44:36.134Z,98790.50
2022-12-18T23:49:38.039Z,98785.94
2022-12-18T23:54:42.105Z,98772.97
2022-12-18T23:59:44.050Z,98774.13
